createdAt,value
2022-12-05T00:01:15.671Z,23.02
2022-12-05T00:03:42.382Z,21.80
2022-12-05T00:06:09.154Z,21.17
2022-12-05T00:08:35.691Z,21.20
2022-12-05T00:11:03.919Z,22.00
2022-12-05T00:13:30.463Z,22.67
2022-12-05T00:15:57.213Z,24.30
2022-12-05T00:18:23.755Z,24.67
2022-12-05T00:20:50.258Z,23.05
2022-12-05T00:23:17.078Z,22.10
2022-12-05T00:25:43.640Z,23.48
2022-12-05T00:28:11.549Z,21.67
2022-12-05T00:30:40.333Z,25.80
2022-12-05T00:33:06.985Z,26.08
2022-12-05T00:35:33.618Z,23.42
2022-12-05T00:38:00.208Z,22.27
2022-12-05T00:40:26.815Z,24.98
2022-12-05T00:42:53.569Z,24.37
2022-12-05T00:45:21.877Z,23.88
2022-12-05T00:47:48.537Z,23.77
2022-12-05T00:50:15.046Z,23.92
2022-12-05T00:52:41.612Z,23.48
2022-12-05T00:55:09.109Z,20.13
2022-12-05T00:57:35.665Z,23.52
2022-12-05T01:00:02.257Z,23.70
2022-12-05T01:02:30.258Z,21.90
2022-12-05T01:04:56.850Z,23.30
2022-12-05T01:07:23.446Z,22.53
2022-12-05T01:09:50.186Z,25.08
2022-12-05T01:12:16.782Z,23.35
2022-12-05T01:14:43.340Z,20.08
2022-12-05T01:17:10.174Z,23.27
2022-12-05T01:19:38.253Z,24.57
2022-12-05T01:22:04.786Z,20.80
2022-12-05T01:24:31.397Z,20.85
2022-12-05T01:26:57.946Z,19.02
2022-12-05T01:29:25.668Z,22.05
2022-12-05T01:31:52.813Z,21.00
2022-12-05T01:34:19.434Z,18.80
2022-12-05T01:36:47.826Z,24.70
2022-12-05T01:39:15.184Z,24.02
2022-12-05T01:41:43.650Z,21.55
2022-12-05T01:44:43.537Z,20.70
2022-12-05T01:47:10.322Z,21.83
2022-12-05T01:49:41.080Z,20.52
2022-12-05T01:52:14.661Z,20.00
2022-12-05T01:54:43.519Z,19.95
2022-12-05T01:57:12.556Z,20.97
2022-12-05T01:59:44.128Z,21.25
2022-12-05T02:02:12.095Z,21.17
2022-12-05T02:04:45.881Z,19.23
2022-12-05T02:07:13.798Z,21.75
2022-12-05T02:09:40.378Z,19.07
2022-12-05T02:12:07.121Z,21.85
2022-12-05T02:14:44.587Z,22.23
2022-12-05T02:17:17.173Z,21.95
2022-12-05T02:20:08.011Z,20.70
2022-12-05T02:22:59.754Z,19.77
2022-12-05T02:25:48.019Z,19.52
2022-12-05T02:28:33.526Z,21.13
2022-12-05T02:31:08.584Z,18.63
2022-12-05T02:33:41.316Z,21.10
2022-12-05T02:36:11.888Z,20.70
2022-12-05T02:38:44.901Z,20.98
2022-12-05T02:41:19.229Z,21.13
2022-12-05T02:43:52.319Z,20.25
2022-12-05T02:46:23.390Z,20.08
2022-12-05T02:48:54.334Z,18.90
2022-12-05T02:51:24.036Z,19.25
2022-12-05T02:53:51.740Z,25.92
2022-12-05T02:56:19.378Z,19.13
2022-12-05T02:58:51.942Z,18.27
2022-12-05T03:01:21.569Z,20.23
2022-12-05T03:03:48.426Z,19.00
2022-12-05T03:06:20.992Z,18.73
2022-12-05T03:08:51.082Z,18.92
2022-12-05T03:11:17.674Z,19.75
2022-12-05T03:13:49.122Z,19.73
2022-12-05T03:16:24.905Z,21.45
2022-12-05T03:18:56.451Z,21.00
2022-12-05T03:21:30.376Z,19.00
2022-12-05T03:24:02.309Z,20.25
2022-12-05T03:26:50.554Z,18.20
2022-12-05T03:29:25.173Z,18.92
2022-12-05T03:32:02.521Z,18.38
2022-12-05T03:34:39.355Z,19.45
2022-12-05T03:37:11.063Z,18.55
2022-12-05T03:39:42.671Z,16.93
2022-12-05T03:42:12.230Z,19.45
2022-12-05T03:44:49.189Z,18.40
2022-12-05T03:47:22.885Z,19.13
2022-12-05T03:49:52.698Z,18.20
2022-12-05T03:52:24.986Z,18.90
2022-12-05T03:54:55.793Z,16.73
2022-12-05T03:57:24.261Z,18.10
2022-12-05T03:59:56.679Z,17.80
2022-12-05T04:02:28.394Z,17.90
2022-12-05T04:04:59.779Z,18.20
2022-12-05T04:07:30.423Z,17.05
2022-12-05T04:10:03.375Z,17.10
2022-12-05T04:12:32.851Z,18.67
2022-12-05T04:15:03.628Z,19.48
2022-12-05T04:17:39.003Z,19.50
2022-12-05T04:20:11.837Z,16.95
2022-12-05T04:22:39.559Z,16.52
2022-12-05T04:25:10.224Z,17.02
2022-12-05T04:27:42.531Z,19.80
2022-12-05T04:30:13.721Z,15.43
2022-12-05T04:32:46.114Z,17.38
2022-12-05T04:35:18.199Z,17.13
2022-12-05T04:37:49.645Z,16.55
2022-12-05T04:40:21.488Z,17.55
2022-12-05T04:42:49.938Z,18.57
2022-12-05T04:45:19.244Z,16.08
2022-12-05T04:47:51.995Z,16.10
2022-12-05T04:50:20.776Z,18.55
2022-12-05T04:52:51.150Z,15.63
2022-12-05T04:55:20.748Z,16.50
2022-12-05T04:57:56.082Z,16.90
2022-12-05T05:00:22.659Z,17.30
2022-12-05T05:02:56.125Z,16.30
2022-12-05T05:05:23.457Z,19.02
2022-12-05T05:07:51.912Z,16.50
2022-12-05T05:10:23.349Z,16.30
2022-12-05T05:12:49.907Z,16.80
2022-12-05T05:15:16.929Z,16.48
2022-12-05T05:17:43.636Z,20.05
2022-12-05T05:20:14.403Z,17.70
2022-12-05T05:22:43.447Z,16.58
2022-12-05T05:25:09.955Z,18.05
2022-12-05T05:27:36.713Z,17.83
2022-12-05T05:30:03.715Z,19.05
2022-12-05T05:32:32.285Z,18.70
2022-12-05T05:34:58.811Z,17.85
2022-12-05T05:37:26.646Z,16.35
2022-12-05T05:39:53.142Z,17.63
2022-12-05T05:42:19.799Z,16.48
2022-12-05T05:44:46.313Z,17.57
2022-12-05T05:47:12.875Z,17.20
2022-12-05T05:49:39.427Z,17.23
2022-12-05T05:52:05.921Z,16.63
2022-12-05T05:54:33.863Z,18.88
2022-12-05T05:57:00.388Z,21.73
2022-12-05T05:59:26.923Z,19.58
2022-12-05T06:01:53.494Z,19.75
2022-12-05T06:04:20.131Z,24.58
2022-12-05T06:06:46.672Z,27.00
2022-12-05T06:09:13.237Z,21.77
2022-12-05T06:11:41.197Z,24.23
2022-12-05T06:14:08.810Z,22.75
2022-12-05T06:16:35.576Z,20.20
2022-12-05T06:19:02.142Z,16.98
2022-12-05T06:21:28.661Z,18.97
2022-12-05T06:23:55.347Z,18.95
2022-12-05T06:26:22.693Z,20.60
2022-12-05T06:28:50.681Z,15.80
2022-12-05T06:31:19.626Z,14.57
2022-12-05T06:33:46.711Z,18.50
2022-12-05T06:36:16.387Z,17.58
2022-12-05T06:38:43.585Z,15.23
2022-12-05T06:41:13.559Z,16.48
2022-12-05T06:43:40.164Z,14.88
2022-12-05T06:46:10.421Z,15.90
2022-12-05T06:48:37.129Z,19.27
2022-12-05T06:51:04.301Z,17.88
2022-12-05T06:53:30.979Z,17.10
2022-12-05T06:55:58.550Z,19.33
2022-12-05T06:58:25.557Z,20.90
2022-12-05T07:00:52.947Z,18.45
2022-12-05T07:03:20.919Z,18.63
2022-12-05T07:05:47.422Z,14.63
2022-12-05T07:08:13.999Z,19.42
2022-12-05T07:10:40.605Z,16.97
2022-12-05T07:13:07.215Z,20.25
2022-12-05T07:15:34.168Z,18.67
2022-12-05T07:18:00.730Z,16.92
2022-12-05T07:20:43.063Z,19.20
2022-12-05T07:23:15.122Z,18.77
2022-12-05T07:25:41.689Z,15.00
2022-12-05T07:28:08.540Z,23.35
2022-12-05T07:30:35.116Z,19.92
2022-12-05T07:33:01.662Z,20.75
2022-12-05T07:35:29.545Z,30.03
2022-12-05T07:37:56.114Z,25.38
2022-12-05T07:40:22.656Z,17.00
2022-12-05T07:42:49.272Z,17.67
2022-12-05T07:45:16.162Z,16.52
2022-12-05T07:47:42.803Z,21.57
2022-12-05T07:50:10.224Z,21.38
2022-12-05T07:52:38.125Z,19.02
2022-12-05T07:55:05.686Z,20.55
2022-12-05T07:57:32.309Z,20.52
2022-12-05T07:59:59.242Z,18.17
2022-12-05T08:02:26.085Z,20.10
2022-12-05T08:04:52.645Z,24.38
2022-12-05T08:07:19.284Z,22.92
2022-12-05T08:09:47.145Z,23.98
2022-12-05T08:12:13.719Z,22.03
2022-12-05T08:14:40.294Z,23.20
2022-12-05T08:17:06.935Z,22.75
2022-12-05T08:19:33.551Z,21.08
2022-12-05T08:22:00.277Z,23.40
2022-12-05T08:24:26.868Z,25.23
2022-12-05T08:26:54.758Z,24.23
2022-12-05T08:29:21.995Z,20.65
2022-12-05T08:31:50.876Z,18.10
2022-12-05T08:34:18.752Z,19.08
2022-12-05T08:36:45.820Z,21.53
2022-12-05T08:39:15.145Z,21.23
2022-12-05T08:41:41.709Z,23.80
2022-12-05T08:44:10.961Z,20.75
2022-12-05T08:46:38.401Z,20.67
2022-12-05T08:49:06.243Z,21.47
2022-12-05T08:51:32.974Z,19.35
2022-12-05T08:54:01.538Z,16.15
2022-12-05T08:56:28.171Z,17.95
2022-12-05T08:58:58.528Z,16.90
2022-12-05T09:01:31.268Z,17.90
2022-12-05T09:03:58.634Z,18.05
2022-12-05T09:06:26.204Z,21.27
2022-12-05T09:08:55.120Z,20.45
2022-12-05T09:11:23.165Z,18.70
2022-12-05T09:13:51.122Z,17.10
2022-12-05T09:16:19.571Z,18.13
2022-12-05T09:18:48.545Z,19.20
2022-12-05T09:21:17.107Z,16.38
2022-12-05T09:23:44.485Z,19.25
2022-12-05T09:26:12.991Z,16.40
2022-12-05T09:28:40.172Z,17.85
2022-12-05T09:31:09.395Z,18.08
2022-12-05T09:33:37.118Z,17.40
2022-12-05T09:36:06.596Z,16.95
2022-12-05T09:38:33.194Z,18.77
2022-12-05T09:41:11.474Z,18.95
2022-12-05T09:43:44.600Z,19.85
2022-12-05T09:46:19.032Z,23.92
2022-12-05T09:48:46.246Z,20.63
2022-12-05T09:51:14.394Z,23.90
2022-12-05T09:53:43.545Z,21.60
2022-12-05T09:56:20.645Z,37.35
2022-12-05T09:58:49.087Z,29.90
2022-12-05T10:01:26.431Z,24.20
2022-12-05T10:04:05.968Z,23.70
2022-12-05T10:06:40.327Z,25.88
2022-12-05T10:09:26.676Z,24.63
2022-12-05T10:11:58.139Z,23.15
2022-12-05T10:14:31.733Z,26.27
2022-12-05T10:17:07.388Z,24.40
2022-12-05T10:19:38.023Z,27.20
2022-12-05T10:22:20.094Z,27.30
2022-12-05T10:24:51.857Z,19.88
2022-12-05T10:27:24.146Z,21.15
2022-12-05T10:29:57.450Z,21.80
2022-12-05T10:32:28.414Z,23.40
2022-12-05T10:35:02.060Z,24.52
2022-12-05T10:37:30.237Z,23.73
2022-12-05T10:39:58.187Z,40.10
2022-12-05T10:42:29.164Z,79.33
2022-12-05T10:44:58.510Z,39.03
2022-12-05T10:47:25.773Z,36.50
2022-12-05T10:49:52.996Z,25.65
2022-12-05T10:52:19.871Z,20.65
2022-12-05T10:54:55.002Z,23.37
2022-12-05T10:57:23.973Z,24.70
2022-12-05T10:59:51.206Z,26.95
2022-12-05T11:02:23.360Z,26.42
2022-12-05T11:04:50.692Z,27.65
2022-12-05T11:07:29.214Z,23.70
2022-12-05T11:09:58.003Z,29.50
2022-12-05T11:12:27.103Z,26.75
2022-12-05T11:15:00.622Z,25.25
2022-12-05T11:17:31.621Z,24.42
2022-12-05T11:19:58.583Z,26.73
2022-12-05T11:22:32.508Z,24.58
2022-12-05T11:25:00.724Z,23.58
2022-12-05T11:27:30.691Z,27.60
2022-12-05T11:30:00.668Z,23.48
2022-12-05T11:32:29.090Z,23.97
2022-12-05T11:35:03.138Z,26.17
2022-12-05T11:37:35.444Z,25.98
2022-12-05T11:40:12.368Z,23.80
2022-12-05T11:42:52.622Z,23.05
2022-12-05T11:45:35.078Z,23.90
2022-12-05T11:48:25.398Z,24.35
2022-12-05T11:51:08.609Z,21.05
2022-12-05T11:53:48.346Z,24.55
2022-12-05T11:56:29.856Z,23.75
2022-12-05T11:59:11.776Z,27.40
2022-12-05T12:01:52.565Z,28.95
2022-12-05T12:04:44.414Z,24.77
2022-12-05T12:07:30.367Z,24.63
2022-12-05T12:10:10.695Z,27.63
2022-12-05T12:12:50.198Z,24.40
2022-12-05T12:15:35.023Z,22.20
2022-12-05T12:18:09.929Z,28.77
2022-12-05T12:20:48.017Z,24.55
2022-12-05T12:23:29.890Z,22.13
2022-12-05T12:26:06.912Z,22.97
2022-12-05T12:28:41.214Z,24.13
2022-12-05T12:31:23.992Z,22.98
2022-12-05T12:33:58.127Z,21.08
2022-12-05T12:36:28.121Z,26.02
2022-12-05T12:39:15.412Z,23.20
2022-12-05T12:41:54.523Z,22.58
2022-12-05T12:44:56.162Z,25.95
2022-12-05T12:47:31.981Z,22.65
2022-12-05T12:50:10.808Z,21.50
2022-12-05T12:52:53.764Z,22.47
2022-12-05T12:55:24.695Z,20.88
2022-12-05T12:58:07.538Z,24.63
2022-12-05T13:00:47.031Z,19.70
2022-12-05T13:03:18.016Z,20.75
2022-12-05T13:05:48.614Z,21.37
2022-12-05T13:08:22.155Z,20.75
2022-12-05T13:10:49.296Z,21.08
2022-12-05T13:13:19.514Z,23.27
2022-12-05T13:15:51.004Z,24.20
2022-12-05T13:18:19.520Z,19.67
2022-12-05T13:20:49.405Z,19.92
2022-12-05T13:23:18.887Z,21.38
2022-12-05T13:25:46.793Z,22.45
2022-12-05T13:28:28.394Z,22.27
2022-12-05T13:30:57.877Z,21.10
2022-12-05T13:33:27.115Z,21.13
2022-12-05T13:35:56.858Z,22.52
2022-12-05T13:38:28.644Z,22.40
2022-12-05T13:40:55.422Z,21.40
2022-12-05T13:43:25.389Z,21.50
2022-12-05T13:46:04.297Z,21.38
2022-12-05T13:48:33.358Z,20.98
2022-12-05T13:51:02.906Z,21.10
2022-12-05T13:53:36.238Z,21.52
2022-12-05T13:56:04.910Z,20.97
2022-12-05T13:58:43.084Z,26.45
2022-12-05T14:01:52.006Z,22.92
2022-12-05T14:04:44.140Z,29.27
2022-12-05T14:07:11.788Z,23.88
2022-12-05T14:09:50.321Z,22.83
2022-12-05T14:12:40.978Z,27.23
2022-12-05T14:15:24.917Z,25.17
2022-12-05T14:17:57.335Z,23.45
2022-12-05T14:20:30.827Z,26.05
2022-12-05T14:23:18.883Z,22.53
2022-12-05T14:26:08.513Z,25.08
2022-12-05T14:28:47.342Z,27.83
2022-12-05T14:31:39.937Z,23.08
2022-12-05T14:34:17.759Z,27.77
2022-12-05T14:37:03.463Z,25.10
2022-12-05T14:39:37.935Z,28.80
2022-12-05T14:42:21.248Z,23.88
2022-12-05T14:44:49.428Z,30.88
2022-12-05T14:47:19.825Z,31.17
2022-12-05T14:49:56.541Z,24.60
2022-12-05T14:52:25.849Z,26.50
2022-12-05T14:55:00.177Z,22.98
2022-12-05T14:57:28.351Z,23.23
2022-12-05T14:59:59.169Z,26.48
2022-12-05T15:02:30.272Z,20.43
2022-12-05T15:05:03.766Z,22.77
2022-12-05T15:07:35.745Z,22.73
2022-12-05T15:10:06.386Z,25.42
2022-12-05T15:12:39.622Z,25.70
2022-12-05T15:15:13.387Z,28.03
2022-12-05T15:17:46.437Z,27.95
2022-12-05T15:20:24.445Z,23.45
2022-12-05T15:22:51.201Z,25.25
2022-12-05T15:25:23.358Z,27.52
2022-12-05T15:27:55.295Z,28.27
2022-12-05T15:30:21.854Z,21.60
2022-12-05T15:32:48.500Z,27.95
2022-12-05T15:35:16.343Z,25.58
2022-12-05T15:37:50.771Z,23.95
2022-12-05T15:40:19.356Z,23.30
2022-12-05T15:42:47.445Z,20.60
2022-12-05T15:45:19.413Z,41.95
2022-12-05T15:47:47.302Z,24.65
2022-12-05T15:50:15.036Z,21.90
2022-12-05T15:52:45.759Z,23.17
2022-12-05T15:55:16.947Z,31.55
2022-12-05T15:57:50.372Z,51.08
2022-12-05T16:00:18.903Z,33.63
2022-12-05T16:02:52.466Z,29.60
2022-12-05T16:05:22.459Z,29.73
2022-12-05T16:07:51.180Z,32.80
2022-12-05T16:10:21.023Z,35.40
2022-12-05T16:12:51.487Z,30.70
2022-12-05T16:15:22.768Z,32.42
2022-12-05T16:17:53.770Z,40.87
2022-12-05T16:20:28.447Z,33.42
2022-12-05T16:22:58.087Z,39.83
2022-12-05T16:25:28.098Z,52.03
2022-12-05T16:28:00.222Z,34.45
2022-12-05T16:30:27.377Z,29.50
2022-12-05T16:33:00.798Z,31.65
2022-12-05T16:35:30.664Z,29.90
2022-12-05T16:38:05.954Z,22.80
2022-12-05T16:40:33.927Z,22.98
2022-12-05T16:43:05.340Z,22.13
2022-12-05T16:45:39.774Z,20.77
2022-12-05T16:48:15.838Z,17.17
2022-12-05T16:50:42.633Z,20.27
2022-12-05T16:53:20.071Z,18.92
2022-12-05T16:55:48.944Z,17.57
2022-12-05T16:58:21.738Z,19.17
2022-12-05T17:00:48.487Z,21.63
2022-12-05T17:03:33.494Z,16.95
2022-12-05T17:06:00.889Z,19.50
2022-12-05T17:08:27.516Z,15.93
2022-12-05T17:10:55.546Z,17.10
2022-12-05T17:13:22.383Z,16.27
2022-12-05T17:15:49.218Z,20.77
2022-12-05T17:18:17.429Z,14.27
2022-12-05T17:20:46.783Z,17.53
2022-12-05T17:23:14.579Z,15.55
2022-12-05T17:25:44.037Z,13.23
2022-12-05T17:28:12.130Z,11.88
2022-12-05T17:30:38.719Z,12.20
2022-12-05T17:33:05.854Z,12.43
2022-12-05T17:35:32.696Z,13.13
2022-12-05T17:37:59.209Z,17.52
2022-12-05T17:40:25.983Z,13.25
2022-12-05T17:42:52.519Z,13.75
2022-12-05T17:45:20.761Z,14.57
2022-12-05T17:47:47.308Z,16.33
2022-12-05T17:50:15.186Z,29.52
2022-12-05T17:52:41.882Z,26.80
2022-12-05T17:55:15.740Z,42.42
2022-12-05T17:57:42.365Z,42.87
2022-12-05T18:00:10.038Z,17.70
2022-12-05T18:02:38.066Z,14.95
2022-12-05T18:05:05.225Z,14.93
2022-12-05T18:07:32.041Z,14.65
2022-12-05T18:09:58.663Z,15.67
2022-12-05T18:12:25.177Z,14.93
2022-12-05T18:14:51.669Z,13.05
2022-12-05T18:17:18.291Z,12.48
2022-12-05T18:19:46.227Z,16.90
2022-12-05T18:22:14.729Z,16.23
2022-12-05T18:24:43.674Z,12.43
2022-12-05T18:27:10.209Z,18.10
2022-12-05T18:29:36.781Z,14.95
2022-12-05T18:32:03.553Z,16.10
2022-12-05T18:34:30.206Z,20.83
2022-12-05T18:36:58.090Z,23.08
2022-12-05T18:39:24.765Z,18.05
2022-12-05T18:41:51.314Z,18.33
2022-12-05T18:44:17.850Z,21.13
2022-12-05T18:46:44.422Z,18.57
2022-12-05T18:49:11.723Z,22.17
2022-12-05T18:51:38.608Z,22.95
2022-12-05T18:54:06.830Z,16.17
2022-12-05T18:56:34.450Z,20.15
2022-12-05T18:59:02.769Z,13.83
2022-12-05T19:01:30.666Z,15.85
2022-12-05T19:03:57.817Z,14.95
2022-12-05T19:06:26.304Z,13.27
2022-12-05T19:08:54.559Z,12.38
2022-12-05T19:11:24.205Z,14.63
2022-12-05T19:13:54.737Z,12.35
2022-12-05T19:16:21.475Z,11.75
2022-12-05T19:18:52.985Z,11.25
2022-12-05T19:21:19.535Z,14.93
2022-12-05T19:23:46.362Z,11.73
2022-12-05T19:26:12.939Z,10.90
2022-12-05T19:28:40.934Z,12.02
2022-12-05T19:31:09.087Z,12.48
2022-12-05T19:33:37.952Z,20.08
2022-12-05T19:36:06.468Z,14.20
2022-12-05T19:38:33.837Z,12.70
2022-12-05T19:41:00.920Z,12.32
2022-12-05T19:43:28.345Z,13.25
2022-12-05T19:45:56.582Z,13.85
2022-12-05T19:48:23.441Z,14.00
2022-12-05T19:50:54.937Z,13.32
2022-12-05T19:53:21.552Z,12.68
2022-12-05T19:55:48.175Z,12.68
2022-12-05T19:58:14.796Z,14.20
2022-12-05T20:00:41.383Z,11.93
2022-12-05T20:03:12.278Z,11.77
2022-12-05T20:05:39.081Z,12.23
2022-12-05T20:08:05.735Z,14.23
2022-12-05T20:10:34.214Z,12.82
2022-12-05T20:13:05.453Z,14.07
2022-12-05T20:15:33.101Z,14.07
2022-12-05T20:17:59.799Z,14.73
2022-12-05T20:20:27.951Z,14.00
2022-12-05T20:22:54.519Z,14.43
2022-12-05T20:25:21.167Z,12.10
2022-12-05T20:27:47.744Z,13.55
2022-12-05T20:30:14.415Z,13.80
2022-12-05T20:32:41.017Z,13.52
2022-12-05T20:35:08.215Z,15.60
2022-12-05T20:37:36.127Z,17.07
2022-12-05T20:40:03.017Z,13.95
2022-12-05T20:42:29.724Z,13.88
2022-12-05T20:44:56.517Z,13.07
2022-12-05T20:47:23.082Z,13.73
2022-12-05T20:50:14.976Z,12.57
2022-12-05T20:52:46.801Z,13.80
2022-12-05T20:55:13.846Z,14.32
2022-12-05T20:57:40.387Z,12.48
2022-12-05T21:00:08.452Z,12.07
2022-12-05T21:02:35.314Z,13.80
2022-12-05T21:05:01.982Z,13.98
2022-12-05T21:07:28.545Z,14.77
2022-12-05T21:09:56.604Z,17.23
2022-12-05T21:12:23.456Z,12.68
2022-12-05T21:14:50.025Z,13.77
2022-12-05T21:17:16.589Z,12.80
2022-12-05T21:19:43.123Z,13.25
2022-12-05T21:22:09.648Z,13.02
2022-12-05T21:24:36.329Z,13.20
2022-12-05T21:27:04.499Z,16.17
2022-12-05T21:29:31.317Z,12.00
2022-12-05T21:31:57.859Z,13.15
2022-12-05T21:34:24.462Z,13.25
2022-12-05T21:36:50.991Z,13.07
2022-12-05T21:39:17.561Z,14.50
2022-12-05T21:41:44.134Z,13.82
2022-12-05T21:44:12.171Z,13.18
2022-12-05T21:46:38.788Z,12.60
2022-12-05T21:49:07.477Z,13.27
2022-12-05T21:51:34.191Z,14.47
2022-12-05T21:54:00.769Z,13.13
2022-12-05T21:56:27.340Z,11.10
2022-12-05T21:58:54.203Z,12.80
2022-12-05T22:01:24.108Z,15.73
2022-12-05T22:03:52.330Z,13.47
2022-12-05T22:06:19.235Z,14.30
2022-12-05T22:08:45.796Z,15.18
2022-12-05T22:11:14.351Z,12.82
2022-12-05T22:13:41.880Z,15.57
2022-12-05T22:16:09.149Z,17.10
2022-12-05T22:18:37.474Z,15.63
2022-12-05T22:21:06.499Z,18.45
2022-12-05T22:23:34.587Z,15.88
2022-12-05T22:26:03.888Z,15.57
2022-12-05T22:28:31.430Z,16.33
2022-12-05T22:30:59.972Z,15.77
2022-12-05T22:33:27.450Z,12.70
2022-12-05T22:35:57.411Z,16.85
2022-12-05T22:38:24.260Z,14.77
2022-12-05T22:40:54.438Z,17.27
2022-12-05T22:43:21.450Z,19.17
2022-12-05T22:45:48.018Z,17.15
2022-12-05T22:48:14.898Z,17.75
2022-12-05T22:50:46.516Z,16.95
2022-12-05T22:53:14.914Z,17.23
2022-12-05T22:55:41.504Z,19.35
2022-12-05T22:58:08.092Z,16.40
2022-12-05T23:00:34.683Z,13.55
2022-12-05T23:03:01.343Z,13.05
2022-12-05T23:05:27.930Z,14.37
2022-12-05T23:07:54.734Z,12.32
2022-12-05T23:10:23.131Z,14.13
2022-12-05T23:12:49.794Z,15.65
2022-12-05T23:15:16.472Z,13.15
2022-12-05T23:17:43.065Z,16.03
2022-12-05T23:20:10.374Z,14.02
2022-12-05T23:22:36.941Z,17.60
2022-12-05T23:25:03.734Z,16.20
2022-12-05T23:27:31.666Z,13.65
2022-12-05T23:29:58.443Z,14.23
2022-12-05T23:32:25.152Z,12.95
2022-12-05T23:34:51.736Z,13.48
2022-12-05T23:37:18.450Z,13.38
2022-12-05T23:39:45.025Z,11.75
2022-12-05T23:42:15.176Z,12.23
2022-12-05T23:44:43.462Z,11.85
2022-12-05T23:47:10.113Z,11.63
2022-12-05T23:49:36.735Z,13.25
2022-12-05T23:52:03.389Z,11.80
2022-12-05T23:54:29.934Z,11.97
2022-12-05T23:56:56.429Z,10.30
2022-12-05T23:59:23.008Z,11.20
